Time;durP1;ratioP1;P1;durP2;ratioP2;P2;SDS_P1;SDS_P2;PMS_P1;PMS_P2;Temp;Humidity;BMP_temperature;BMP_pressure;BME280_temperature;BME280_humidity;BME280_pressure;Samples;Min_cycle;Max_cycle;Signal;HPM_P1;HPM_P2
2022/11/22 00:02:16;;;;;;;187.10;78.93;;;0.50;99.90;;;;;;4951064;29;20023;-52
2022/11/22 00:04:41;;;;;;;195.13;77.88;;;0.50;99.90;;;;;;4948440;29;20423;-52
2022/11/22 00:07:07;;;;;;;207.60;80.95;;;0.50;99.90;;;;;;4950557;29;20066;-53
2022/11/22 00:09:33;;;;;;;206.85;84.43;;;0.60;99.90;;;;;;4950871;29;20031;-53
2022/11/22 00:11:59;;;;;;;227.75;90.43;;;0.60;99.90;;;;;;4950630;29;20378;-53
2022/11/22 00:14:25;;;;;;;239.90;95.85;;;0.70;99.90;;;;;;4950374;28;20042;-53
2022/11/22 00:16:50;;;;;;;256.30;98.72;;;0.70;99.90;;;;;;4957437;28;20023;-52
2022/11/22 00:19:16;;;;;;;235.52;94.63;;;0.70;99.90;;;;;;4950339;29;20039;-52
2022/11/22 00:21:41;;;;;;;246.10;96.40;;;0.80;99.90;;;;;;4950479;29;20459;-52
2022/11/22 00:24:07;;;;;;;248.20;99.55;;;0.80;99.90;;;;;;4950674;28;20059;-53
2022/11/22 00:26:33;;;;;;;264.30;98.90;;;0.90;99.90;;;;;;4950265;29;20039;-53
2022/11/22 00:28:58;;;;;;;293.10;103.25;;;0.80;99.90;;;;;;4950222;29;20364;-53
2022/11/22 00:31:24;;;;;;;281.65;103.57;;;0.90;99.90;;;;;;4950564;29;20534;-53
2022/11/22 00:33:50;;;;;;;365.88;110.03;;;0.80;99.90;;;;;;4951537;29;20529;-52
2022/11/22 00:36:16;;;;;;;315.60;119.22;;;0.90;99.90;;;;;;4951905;29;20479;-53
2022/11/22 00:38:42;;;;;;;366.00;116.22;;;0.90;99.90;;;;;;4950609;29;20043;-53
2022/11/22 00:41:08;;;;;;;336.35;122.47;;;0.90;99.90;;;;;;4952277;29;20050;-53
2022/11/22 00:43:34;;;;;;;372.92;120.72;;;1.00;99.90;;;;;;4952041;29;20036;-53
2022/11/22 00:46:00;;;;;;;341.58;126.40;;;1.00;99.90;;;;;;4951868;29;20031;-53
2022/11/22 00:48:26;;;;;;;384.30;119.78;;;1.00;99.90;;;;;;4952061;29;20482;-54
2022/11/22 00:50:51;;;;;;;385.83;127.05;;;1.10;99.90;;;;;;4951901;29;20030;-53
2022/11/22 00:53:17;;;;;;;314.50;119.18;;;1.10;99.90;;;;;;4951883;29;20035;-54
2022/11/22 00:55:44;;;;;;;301.38;118.60;;;1.10;99.90;;;;;;4952008;29;20475;-53
2022/11/22 00:58:10;;;;;;;364.30;124.47;;;1.10;99.90;;;;;;4951657;29;20058;-54
2022/11/22 01:00:35;;;;;;;293.50;102.88;;;1.00;99.90;;;;;;4951730;29;20066;-54
2022/11/22 01:03:02;;;;;;;292.83;93.82;;;1.00;99.90;;;;;;4951665;29;20046;-54
2022/11/22 01:05:28;;;;;;;343.38;116.03;;;1.00;99.90;;;;;;4951649;29;20471;-54
2022/11/22 01:07:53;;;;;;;339.75;120.78;;;1.00;99.90;;;;;;4952252;29;20118;-53
2022/11/22 01:10:19;;;;;;;326.63;118.15;;;1.00;99.90;;;;;;4951595;29;20028;-53
2022/11/22 01:12:45;;;;;;;297.70;109.85;;;1.00;99.90;;;;;;4951973;29;20027;-53
2022/11/22 01:15:10;;;;;;;350.15;112.32;;;1.20;99.90;;;;;;4951852;29;20170;-55
2022/11/22 01:17:36;;;;;;;320.33;105.32;;;1.10;99.90;;;;;;4951537;29;20483;-54
2022/11/22 01:20:02;;;;;;;260.10;99.20;;;1.00;99.90;;;;;;4951604;29;20023;-53
2022/11/22 01:22:28;;;;;;;260.45;95.10;;;1.10;99.90;;;;;;4934464;29;20056;-53
2022/11/22 01:24:53;;;;;;;260.67;93.38;;;1.10;99.90;;;;;;4951570;29;20071;-52
2022/11/22 01:27:19;;;;;;;224.82;89.43;;;1.10;99.90;;;;;;4953593;28;20101;-54
2022/11/22 01:29:45;;;;;;;216.60;84.75;;;1.10;99.90;;;;;;4955616;29;20371;-54
2022/11/22 01:32:10;;;;;;;284.00;90.78;;;1.10;99.90;;;;;;4955603;29;20035;-55
2022/11/22 01:34:36;;;;;;;211.00;80.25;;;1.00;99.90;;;;;;4936407;29;20024;-55
2022/11/22 01:37:01;;;;;;;256.52;72.97;;;0.90;99.90;;;;;;4936045;29;20432;-53
2022/11/22 01:39:27;;;;;;;223.20;74.65;;;0.80;99.90;;;;;;4936483;29;20103;-53
2022/11/22 01:41:53;;;;;;;187.00;73.82;;;0.80;99.90;;;;;;4936113;29;20611;-54
2022/11/22 01:44:20;;;;;;;207.80;73.97;;;0.80;99.90;;;;;;4936088;29;20035;-53
2022/11/22 01:46:53;;;;;;;181.27;71.10;;;0.70;99.90;;;;;;4936227;29;20083;-55
2022/11/22 01:49:28;;;;;;;223.48;73.10;;;0.80;99.90;;;;;;4936083;29;20040;-54
2022/11/22 01:52:00;;;;;;;215.05;73.43;;;0.80;99.90;;;;;;4934770;29;20058;-53
2022/11/22 01:54:29;;;;;;;184.93;67.38;;;0.80;99.90;;;;;;4936133;29;20023;-54
2022/11/22 01:57:01;;;;;;;187.20;69.45;;;0.80;99.90;;;;;;4935868;29;20046;-55
2022/11/22 01:59:29;;;;;;;181.27;68.22;;;0.80;99.90;;;;;;4935914;29;20046;-54
2022/11/22 02:01:59;;;;;;;216.73;69.72;;;0.80;99.90;;;;;;4935951;29;20035;-54
2022/11/22 02:04:27;;;;;;;208.35;71.72;;;0.70;99.90;;;;;;4935544;29;20032;-53
2022/11/22 02:07:00;;;;;;;194.32;67.70;;;0.60;99.90;;;;;;4935316;29;20063;-54
2022/11/22 02:09:26;;;;;;;171.48;66.45;;;0.60;99.90;;;;;;4947650;29;20031;-54
2022/11/22 02:11:55;;;;;;;196.30;65.95;;;0.50;99.90;;;;;;4954957;29;20054;-53
2022/11/22 02:14:24;;;;;;;166.15;63.30;;;0.50;99.90;;;;;;4954775;29;20114;-54
2022/11/22 02:16:49;;;;;;;141.02;60.05;;;0.50;99.90;;;;;;4954597;29;20031;-55
2022/11/22 02:19:25;;;;;;;166.55;57.50;;;0.50;99.90;;;;;;4954387;29;20062;-54
2022/11/22 02:21:57;;;;;;;139.00;57.28;;;0.40;99.90;;;;;;4954409;29;20031;-53
2022/11/22 02:24:29;;;;;;;175.77;58.50;;;0.40;99.90;;;;;;4954218;29;20426;-54
2022/11/22 02:26:55;;;;;;;141.88;56.38;;;0.40;99.90;;;;;;4959758;28;20058;-54
2022/11/22 02:29:21;;;;;;;130.55;52.90;;;0.40;99.90;;;;;;4954288;29;20031;-54
2022/11/22 02:31:46;;;;;;;144.05;55.00;;;0.40;99.90;;;;;;4954280;29;20094;-53
2022/11/22 02:34:13;;;;;;;145.35;54.65;;;0.40;99.90;;;;;;4954172;29;20027;-53
2022/11/22 02:36:44;;;;;;;120.72;51.08;;;0.40;99.90;;;;;;4954293;29;20102;-53
2022/11/22 02:39:13;;;;;;;161.98;49.92;;;0.40;99.90;;;;;;4953017;28;20074;-53
2022/11/22 02:41:39;;;;;;;127.32;51.65;;;0.30;99.90;;;;;;4954555;29;20051;-54
2022/11/22 02:44:06;;;;;;;129.23;51.95;;;0.40;99.90;;;;;;4954195;29;20066;-53
2022/11/22 02:46:32;;;;;;;132.32;49.50;;;0.30;99.90;;;;;;4953968;29;20046;-53
2022/11/22 02:48:58;;;;;;;137.32;51.10;;;0.20;99.90;;;;;;4953992;29;20479;-54
2022/11/22 02:51:25;;;;;;;137.57;49.72;;;0.30;99.90;;;;;;4954074;29;20027;-54
2022/11/22 02:53:52;;;;;;;156.60;55.72;;;0.20;99.90;;;;;;4953944;29;20031;-53
2022/11/22 02:56:18;;;;;;;117.68;52.95;;;0.30;99.90;;;;;;4953961;29;20439;-53
2022/11/22 02:58:44;;;;;;;115.50;51.35;;;0.30;99.90;;;;;;4954064;29;20087;-54
2022/11/22 03:01:11;;;;;;;137.37;52.77;;;0.40;99.90;;;;;;4953858;29;20019;-54
2022/11/22 03:03:37;;;;;;;116.18;50.92;;;0.40;99.90;;;;;;4953973;29;20035;-53
2022/11/22 03:06:03;;;;;;;127.78;54.55;;;0.40;99.90;;;;;;4953905;29;20110;-53
2022/11/22 03:08:29;;;;;;;132.23;51.05;;;0.40;99.90;;;;;;4953771;29;20475;-54
2022/11/22 03:10:57;;;;;;;110.13;49.33;;;0.40;99.90;;;;;;4953854;29;20039;-54
2022/11/22 03:13:23;;;;;;;118.28;52.35;;;0.50;99.90;;;;;;4953516;29;20541;-53
2022/11/22 03:15:48;;;;;;;127.32;48.70;;;0.50;99.90;;;;;;4953519;29;20034;-53
2022/11/22 03:18:14;;;;;;;119.38;48.50;;;0.30;99.90;;;;;;4953515;29;20154;-52
2022/11/22 03:20:39;;;;;;;116.60;47.85;;;0.40;99.90;;;;;;4953700;29;20015;-53
2022/11/22 03:23:05;;;;;;;132.90;49.67;;;0.30;99.90;;;;;;4953452;29;20503;-53
2022/11/22 03:25:31;;;;;;;135.27;47.63;;;0.30;99.90;;;;;;4953195;29;20475;-54
2022/11/22 03:27:57;;;;;;;106.50;47.45;;;0.20;99.90;;;;;;4953349;29;20031;-54
2022/11/22 03:30:23;;;;;;;124.50;48.58;;;0.20;99.90;;;;;;4953428;29;20043;-53
2022/11/22 03:32:49;;;;;;;111.15;48.65;;;0.20;99.90;;;;;;4953276;29;20145;-53
2022/11/22 03:35:14;;;;;;;122.05;49.28;;;0.20;99.90;;;;;;4953164;29;20038;-53
2022/11/22 03:37:40;;;;;;;113.43;48.65;;;0.20;99.90;;;;;;4953173;29;20078;-53
2022/11/22 03:40:07;;;;;;;117.38;50.38;;;0.10;99.90;;;;;;4953186;29;20027;-52
2022/11/22 03:42:32;;;;;;;117.65;49.67;;;0.10;99.90;;;;;;4953073;29;20081;-54
2022/11/22 03:44:58;;;;;;;121.05;51.67;;;0.10;99.90;;;;;;4953066;29;20984;-54
2022/11/22 03:47:23;;;;;;;122.72;53.70;;;0.20;99.90;;;;;;4952864;29;20027;-53
2022/11/22 03:49:49;;;;;;;114.50;52.92;;;0.20;99.90;;;;;;4952668;28;20027;-53
2022/11/22 03:52:14;;;;;;;128.55;54.15;;;0.20;99.90;;;;;;4952897;29;20035;-54
2022/11/22 03:54:40;;;;;;;133.63;53.30;;;0.20;99.90;;;;;;4953002;29;20027;-52
2022/11/22 03:57:06;;;;;;;119.10;55.10;;;0.10;99.90;;;;;;4952806;29;20031;-53
2022/11/22 03:59:31;;;;;;;127.15;54.33;;;0.10;99.90;;;;;;4952583;29;20475;-53
2022/11/22 04:01:57;;;;;;;140.95;56.10;;;0.00;99.90;;;;;;4952914;29;20027;-54
2022/11/22 04:04:23;;;;;;;118.03;53.97;;;0.00;99.90;;;;;;4935502;29;20031;-54
2022/11/22 04:06:48;;;;;;;128.52;55.72;;;0.10;99.90;;;;;;4952783;29;20070;-54
2022/11/22 04:09:14;;;;;;;121.60;53.78;;;0.00;99.90;;;;;;4952652;29;20027;-55
2022/11/22 04:11:40;;;;;;;122.53;54.50;;;0.00;99.90;;;;;;4952861;29;20098;-52
2022/11/22 04:16:50;;;;;;;126.30;55.10;;;0.00;99.90;;;;;;4952352;29;20073;-54
2022/11/22 04:19:15;;;;;;;130.13;57.45;;;0.00;99.90;;;;;;4952606;29;20444;-53
2022/11/22 04:21:41;;;;;;;127.65;52.72;;;0.00;99.90;;;;;;4952097;29;20648;-54
2022/11/22 04:26:54;;;;;;;130.25;54.72;;;-0.10;99.90;;;;;;4952173;29;20102;-54
2022/11/22 04:29:20;;;;;;;132.57;54.90;;;-0.10;99.90;;;;;;4952566;29;20023;-53
2022/11/22 04:34:31;;;;;;;124.95;55.90;;;-0.20;99.90;;;;;;4952624;29;20038;-54
2022/11/22 04:36:57;;;;;;;126.05;53.30;;;-0.30;99.90;;;;;;4952009;29;20027;-54
2022/11/22 04:39:23;;;;;;;137.20;57.55;;;-0.30;99.90;;;;;;4934922;29;20035;-54
2022/11/22 04:44:39;;;;;;;130.25;54.42;;;-0.30;99.90;;;;;;4952342;29;20094;-54
2022/11/22 04:47:08;;;;;;;119.40;54.25;;;-0.30;99.90;;;;;;4952068;29;20084;-54
2022/11/22 04:49:34;;;;;;;117.18;54.50;;;-0.30;99.90;;;;;;4952147;29;20034;-54
2022/11/22 04:55:04;;;;;;;120.03;56.08;;;-0.30;99.90;;;;;;4892655;29;20037;-54
2022/11/22 04:57:30;;;;;;;116.20;54.63;;;-0.30;99.90;;;;;;4910141;29;20453;-54
2022/11/22 04:59:55;;;;;;;129.52;55.58;;;-0.40;99.90;;;;;;4929866;29;20058;-53
2022/11/22 05:02:21;;;;;;;134.70;58.58;;;-0.50;99.90;;;;;;4951477;28;20463;-54
2022/11/22 05:04:47;;;;;;;119.40;53.33;;;-0.40;99.90;;;;;;4934561;29;20103;-54
2022/11/22 05:07:12;;;;;;;124.53;56.47;;;-0.50;99.90;;;;;;4951662;29;20035;-54
2022/11/22 05:09:38;;;;;;;124.68;56.55;;;-0.50;99.90;;;;;;4951833;29;20061;-54
2022/11/22 05:12:04;;;;;;;127.50;57.58;;;-0.50;99.90;;;;;;4951900;29;20032;-54
2022/11/22 05:14:29;;;;;;;124.32;57.20;;;-0.50;99.90;;;;;;4934440;29;20418;-55
2022/11/22 05:16:55;;;;;;;118.05;56.08;;;-0.60;99.90;;;;;;4951807;29;20041;-55
2022/11/22 05:19:21;;;;;;;122.13;57.97;;;-0.60;99.90;;;;;;4951724;29;20091;-53
2022/11/22 05:21:46;;;;;;;123.70;56.80;;;-0.50;99.90;;;;;;4951698;29;20099;-53
2022/11/22 05:24:12;;;;;;;116.45;55.45;;;-0.60;99.90;;;;;;4951655;29;20123;-53
2022/11/22 05:26:38;;;;;;;117.13;57.30;;;-0.70;99.90;;;;;;4951609;29;20048;-54
2022/11/22 05:29:08;;;;;;;128.65;60.05;;;-0.60;99.90;;;;;;4951060;29;20039;-53
2022/11/22 05:31:36;;;;;;;120.50;57.80;;;-0.60;99.90;;;;;;4951617;29;20020;-53
2022/11/22 05:34:02;;;;;;;127.65;60.65;;;-0.70;99.90;;;;;;4951791;29;20038;-54
2022/11/22 05:36:31;;;;;;;122.73;59.37;;;-0.60;99.90;;;;;;4951998;29;20039;-55
2022/11/22 05:38:57;;;;;;;130.45;59.38;;;-0.70;99.90;;;;;;4951521;29;20035;-54
2022/11/22 05:41:22;;;;;;;126.63;60.95;;;-0.70;99.90;;;;;;4951589;29;20085;-53
2022/11/22 05:43:48;;;;;;;140.82;63.65;;;-0.70;99.90;;;;;;4951662;29;20043;-54
2022/11/22 05:46:18;;;;;;;147.23;68.68;;;-0.70;99.90;;;;;;4951397;29;20035;-54
2022/11/22 05:48:45;;;;;;;137.52;67.35;;;-0.70;99.90;;;;;;4934206;29;20157;-55
2022/11/22 05:51:12;;;;;;;;;;;-0.70;99.90;;;;;;4951388;29;20106;-54
2022/11/22 05:53:38;;;;;;;148.73;71.57;;;-0.70;99.90;;;;;;4950956;29;19936;-52
2022/11/22 05:56:09;;;;;;;151.55;76.57;;;-0.60;99.90;;;;;;4950667;28;20134;-54
2022/11/22 05:58:35;;;;;;;138.50;73.72;;;-0.70;99.90;;;;;;4949511;29;20527;-53
2022/11/22 06:01:22;;;;;;;133.67;70.03;;;-0.70;99.90;;;;;;4950262;29;20027;-55
2022/11/22 06:03:49;;;;;;;129.05;66.85;;;-0.70;99.90;;;;;;4948442;29;20020;-54
2022/11/22 06:06:15;;;;;;;122.53;62.65;;;-0.60;99.90;;;;;;4949556;29;20019;-54
2022/11/22 06:08:44;;;;;;;117.13;57.88;;;-0.60;99.90;;;;;;4949865;29;20028;-54
2022/11/22 06:11:20;;;;;;;111.07;56.55;;;-0.60;99.90;;;;;;4943455;28;20039;-54
2022/11/22 06:13:48;;;;;;;108.07;55.83;;;-0.60;99.90;;;;;;4973053;28;20031;-53
2022/11/22 06:16:14;;;;;;;104.47;54.67;;;-0.50;99.90;;;;;;4973831;28;20385;-54
2022/11/22 06:18:40;;;;;;;103.65;54.47;;;-0.50;99.90;;;;;;4958632;28;20070;-54
2022/11/22 06:21:11;;;;;;;101.47;53.67;;;-0.50;99.90;;;;;;4953347;29;20027;-55
2022/11/22 06:23:37;;;;;;;111.35;53.17;;;-0.40;99.90;;;;;;4953420;29;20105;-54
2022/11/22 06:26:05;;;;;;;105.75;55.15;;;-0.40;99.90;;;;;;4953120;29;20510;-53
2022/11/22 06:28:33;;;;;;;108.32;53.50;;;-0.30;99.90;;;;;;4953492;29;20097;-55
2022/11/22 06:31:03;;;;;;;98.18;51.53;;;-0.20;99.90;;;;;;4955922;28;20175;-55
2022/11/22 06:33:29;;;;;;;104.00;51.80;;;-0.10;99.90;;;;;;4954136;29;20089;-53
2022/11/22 06:36:03;;;;;;;103.78;53.72;;;-0.10;99.90;;;;;;4936738;29;20126;-55
2022/11/22 06:38:29;;;;;;;108.15;54.42;;;0.00;99.90;;;;;;4954452;29;20047;-54
2022/11/22 06:41:03;;;;;;;101.82;51.20;;;0.00;99.90;;;;;;4954143;29;20047;-54
2022/11/22 06:43:29;;;;;;;102.43;52.63;;;0.00;99.90;;;;;;4945398;29;20023;-54
2022/11/22 06:46:00;;;;;;;97.57;52.63;;;0.10;99.90;;;;;;4935029;29;20106;-54
2022/11/22 06:48:29;;;;;;;112.72;55.50;;;0.20;99.90;;;;;;4942924;29;20387;-53
2022/11/22 06:51:06;;;;;;;103.53;51.97;;;0.30;99.90;;;;;;4936373;29;20511;-54
2022/11/22 06:53:34;;;;;;;103.47;52.72;;;0.30;99.90;;;;;;4951831;29;20035;-54
2022/11/22 06:56:04;;;;;;;99.25;52.63;;;0.40;99.90;;;;;;4952264;29;20036;-55
2022/11/22 06:58:30;;;;;;;104.10;54.25;;;0.50;99.90;;;;;;4951883;29;20368;-54
2022/11/22 07:01:07;;;;;;;100.07;53.38;;;0.60;99.90;;;;;;4952944;29;20163;-54
2022/11/22 07:03:37;;;;;;;94.63;51.05;;;0.60;99.90;;;;;;4953801;29;20059;-54
2022/11/22 07:06:04;;;;;;;95.25;51.47;;;0.70;99.90;;;;;;4952777;29;20039;-55
2022/11/22 07:08:30;;;;;;;92.50;48.83;;;0.70;99.90;;;;;;4953551;29;20650;-54
2022/11/22 07:11:05;;;;;;;91.70;48.70;;;0.80;99.90;;;;;;4953567;29;20039;-53
2022/11/22 07:13:31;;;;;;;91.20;47.72;;;0.80;99.90;;;;;;4952632;29;20020;-53
2022/11/22 07:15:58;;;;;;;88.03;50.65;;;0.90;99.90;;;;;;4952054;29;20039;-54
2022/11/22 07:18:25;;;;;;;85.70;48.60;;;1.00;99.90;;;;;;4952224;29;20039;-56
2022/11/22 07:20:51;;;;;;;86.03;46.60;;;1.10;99.90;;;;;;4952700;29;20058;-54
2022/11/22 07:23:16;;;;;;;85.80;45.03;;;1.10;99.90;;;;;;4953233;29;20054;-54
2022/11/22 07:25:46;;;;;;;82.38;45.67;;;1.20;99.90;;;;;;4952602;28;20475;-54
2022/11/22 07:28:15;;;;;;;83.70;44.28;;;1.30;99.90;;;;;;4953208;29;20139;-53
2022/11/22 07:30:41;;;;;;;81.53;44.63;;;1.50;99.90;;;;;;4953422;29;20027;-53
2022/11/22 07:33:08;;;;;;;81.55;43.75;;;1.50;99.90;;;;;;4953428;29;20024;-53
2022/11/22 07:35:34;;;;;;;74.23;44.57;;;1.60;99.90;;;;;;4953300;29;20034;-53
2022/11/22 07:38:00;;;;;;;73.75;40.33;;;1.60;99.90;;;;;;4953029;29;20147;-55
2022/11/22 07:40:26;;;;;;;74.65;40.85;;;1.60;99.90;;;;;;4953213;29;20118;-55
2022/11/22 07:42:52;;;;;;;69.57;39.88;;;1.70;99.90;;;;;;4952890;29;20031;-55
2022/11/22 07:45:17;;;;;;;78.78;43.97;;;1.70;99.90;;;;;;4953075;29;20042;-54
2022/11/22 07:47:43;;;;;;;79.47;42.85;;;1.80;99.90;;;;;;4952856;29;20027;-54
2022/11/22 07:50:09;;;;;;;74.05;41.90;;;1.80;99.90;;;;;;4935893;29;20027;-54
2022/11/22 07:52:34;;;;;;;75.03;41.95;;;1.90;99.90;;;;;;4952689;29;20242;-54
2022/11/22 07:55:00;;;;;;;67.53;40.67;;;1.90;99.90;;;;;;4952915;29;20386;-54
2022/11/22 07:57:26;;;;;;;72.45;41.08;;;2.00;99.90;;;;;;4951306;29;20113;-53
2022/11/22 07:59:51;;;;;;;73.72;41.08;;;2.10;99.90;;;;;;4952232;29;20085;-53
2022/11/22 08:02:17;;;;;;;68.13;40.38;;;2.30;99.90;;;;;;4952715;29;20602;-54
2022/11/22 08:04:43;;;;;;;68.30;40.67;;;2.40;99.90;;;;;;4952686;29;20392;-54
2022/11/22 08:07:08;;;;;;;65.03;39.92;;;2.40;99.90;;;;;;4952354;29;20028;-53
2022/11/22 08:09:35;;;;;;;78.78;43.42;;;2.60;99.90;;;;;;4952475;29;20027;-53
2022/11/22 08:12:01;;;;;;;68.50;42.00;;;2.60;99.90;;;;;;4952381;29;20055;-52
2022/11/22 08:14:27;;;;;;;70.23;39.57;;;2.70;99.90;;;;;;4952462;29;20558;-53
2022/11/22 08:16:52;;;;;;;67.32;38.42;;;2.90;99.90;;;;;;4952644;29;20114;-53
2022/11/22 08:19:19;;;;;;;57.50;35.08;;;3.00;99.90;;;;;;4952154;29;20517;-54
2022/11/22 08:21:46;;;;;;;64.47;37.03;;;3.10;99.90;;;;;;4952317;29;20111;-54
2022/11/22 08:24:11;;;;;;;59.97;37.13;;;3.20;99.90;;;;;;4952082;29;20117;-53
2022/11/22 08:26:37;;;;;;;63.47;38.65;;;3.20;99.90;;;;;;4949501;29;20154;-53
2022/11/22 08:29:04;;;;;;;63.58;35.55;;;3.40;99.90;;;;;;4951133;29;20027;-53
2022/11/22 08:31:30;;;;;;;61.08;35.20;;;3.60;99.90;;;;;;4951036;29;20483;-53
2022/11/22 08:33:56;;;;;;;66.30;39.28;;;3.70;99.90;;;;;;4950616;29;20130;-52
2022/11/22 08:36:21;;;;;;;64.75;36.42;;;3.80;99.90;;;;;;4950413;28;20134;-54
2022/11/22 08:38:47;;;;;;;62.20;36.72;;;3.80;99.90;;;;;;4950316;29;20039;-54
2022/11/22 08:41:13;;;;;;;59.88;35.67;;;4.00;99.90;;;;;;4950561;29;20062;-53
2022/11/22 08:43:39;;;;;;;58.42;36.72;;;4.20;99.90;;;;;;4933027;29;20035;-53
2022/11/22 08:46:05;;;;;;;62.15;36.03;;;4.30;99.90;;;;;;4950932;29;20027;-54
2022/11/22 08:48:34;;;;;;;61.20;34.58;;;4.50;99.90;;;;;;4933442;29;20078;-55
2022/11/22 08:51:02;;;;;;;60.55;33.85;;;4.40;99.90;;;;;;4949414;29;20102;-52
2022/11/22 08:53:28;;;;;;;64.00;34.83;;;4.70;99.90;;;;;;4951070;29;20026;-52
2022/11/22 08:55:54;;;;;;;54.63;33.22;;;4.90;99.90;;;;;;4951104;29;20031;-53
2022/11/22 08:58:21;;;;;;;57.38;34.10;;;5.20;99.90;;;;;;4951168;29;20499;-54
2022/11/22 09:00:47;;;;;;;55.13;31.17;;;5.50;99.90;;;;;;4952002;29;20745;-53
2022/11/22 09:03:12;;;;;;;49.45;30.55;;;6.20;99.90;;;;;;4951675;29;20020;-53
2022/11/22 09:05:38;;;;;;;54.53;30.40;;;6.10;99.90;;;;;;4951917;29;20030;-53
2022/11/22 09:08:04;;;;;;;50.70;30.88;;;6.10;99.90;;;;;;4951898;29;20032;-55
2022/11/22 09:10:30;;;;;;;50.58;31.88;;;6.20;99.90;;;;;;4950604;29;20042;-54
2022/11/22 09:12:55;;;;;;;47.85;30.27;;;6.40;99.90;;;;;;4951880;29;20043;-56
2022/11/22 09:15:21;;;;;;;45.78;29.25;;;6.90;99.90;;;;;;4951557;29;20023;-56
2022/11/22 09:17:47;;;;;;;48.00;28.83;;;6.70;99.90;;;;;;4951873;29;20537;-55
2022/11/22 09:20:13;;;;;;;43.53;26.23;;;6.70;99.90;;;;;;4951470;29;20027;-54
2022/11/22 09:22:38;;;;;;;47.55;28.80;;;6.70;99.90;;;;;;4951727;29;20451;-54
2022/11/22 09:25:05;;;;;;;45.20;26.92;;;6.90;99.90;;;;;;4951784;29;20031;-53
2022/11/22 09:27:32;;;;;;;40.38;25.33;;;6.90;99.90;;;;;;4951009;29;20054;-55
2022/11/22 09:29:57;;;;;;;42.00;25.15;;;7.60;99.90;;;;;;4951301;29;20049;-55
2022/11/22 09:32:24;;;;;;;38.22;23.15;;;7.60;99.90;;;;;;4951225;29;20058;-55
2022/11/22 09:34:49;;;;;;;38.38;24.40;;;7.90;99.90;;;;;;4951475;29;20060;-55
2022/11/22 09:37:17;;;;;;;39.47;24.02;;;7.60;99.90;;;;;;4952557;29;20031;-56
2022/11/22 09:39:46;;;;;;;38.95;24.10;;;7.60;99.90;;;;;;4952766;29;20039;-55
2022/11/22 09:42:51;;;;;;;37.88;23.77;;;7.60;99.90;;;;;;4951403;29;20120;-54
2022/11/22 09:46:14;;;;;;;38.28;23.75;;;8.30;99.90;;;;;;4934598;29;20035;-55
2022/11/22 09:48:43;;;;;;;40.45;21.48;;;8.90;99.90;;;;;;4921530;29;20498;-54
2022/11/22 09:51:17;;;;;;;35.42;21.80;;;8.60;99.90;;;;;;4955085;29;20078;-54
2022/11/22 09:53:54;;;;;;;36.78;22.40;;;9.80;99.90;;;;;;4953633;29;20047;-54
2022/11/22 09:56:24;;;;;;;35.33;20.50;;;10.40;99.90;;;;;;4954765;29;20031;-54
2022/11/22 09:59:12;;;;;;;34.42;20.27;;;9.80;99.90;;;;;;4954512;29;20043;-55
2022/11/22 10:01:42;;;;;;;30.27;19.20;;;9.30;99.90;;;;;;4954621;29;20136;-56
2022/11/22 10:04:20;;;;;;;26.70;18.95;;;9.90;99.90;;;;;;4954093;29;20087;-55
2022/11/22 10:06:51;;;;;;;27.15;18.25;;;10.40;99.90;;;;;;4954387;29;20043;-53
2022/11/22 10:09:44;;;;;;;33.33;19.73;;;10.70;99.90;;;;;;4954901;29;20653;-55
2022/11/22 10:12:48;;;;;;;25.73;16.50;;;10.70;99.90;;;;;;4954518;29;20106;-55
2022/11/22 10:15:32;;;;;;;28.88;16.77;;;10.20;99.90;;;;;;4932232;29;20035;-53
2022/11/22 10:18:10;;;;;;;26.48;16.58;;;10.70;99.90;;;;;;4954809;29;20031;-54
2022/11/22 10:20:40;;;;;;;25.25;16.50;;;11.50;99.90;;;;;;4954884;29;20766;-55
2022/11/22 10:23:33;;;;;;;28.00;16.85;;;11.40;99.90;;;;;;4954746;29;20046;-54
2022/11/22 10:26:00;;;;;;;23.52;15.32;;;11.30;99.20;;;;;;4950770;29;20138;-55
2022/11/22 10:28:35;;;;;;;21.98;13.65;;;11.60;99.30;;;;;;4954570;29;20102;-53
2022/11/22 10:31:13;;;;;;;20.00;13.55;;;11.90;97.20;;;;;;4953143;29;20110;-54
2022/11/22 10:34:08;;;;;;;22.50;13.93;;;11.90;97.40;;;;;;4954508;29;20019;-54
2022/11/22 10:36:53;;;;;;;19.98;12.02;;;12.00;95.80;;;;;;4954489;29;20038;-56
2022/11/22 10:39:49;;;;;;;20.30;12.52;;;11.80;95.90;;;;;;4954329;29;20039;-53
2022/11/22 10:42:33;;;;;;;18.08;11.02;;;11.70;94.90;;;;;;4954561;29;20038;-53
2022/11/22 10:45:17;;;;;;;19.13;11.77;;;11.20;96.30;;;;;;4952869;29;20027;-54
2022/11/22 10:48:29;;;;;;;18.65;10.85;;;11.70;95.00;;;;;;4953977;29;20082;-53
2022/11/22 10:51:14;;;;;;;18.30;11.18;;;11.70;96.60;;;;;;4894689;29;20032;-54
2022/11/22 10:53:52;;;;;;;18.90;11.35;;;12.30;93.90;;;;;;4949609;29;20639;-56
2022/11/22 10:56:23;;;;;;;19.30;11.45;;;11.60;94.80;;;;;;4953964;29;20027;-53
2022/11/22 10:59:25;;;;;;;18.48;10.68;;;11.60;95.50;;;;;;4953070;28;20047;-53
2022/11/22 11:02:15;;;;;;;16.33;10.07;;;11.90;95.10;;;;;;4954041;29;20035;-54
2022/11/22 11:04:42;;;;;;;17.92;10.05;;;11.70;95.00;;;;;;4953855;29;20035;-54
2022/11/22 11:07:15;;;;;;;19.35;9.95;;;12.20;94.90;;;;;;4953752;29;20043;-55
2022/11/22 11:09:45;;;;;;;15.48;9.02;;;12.40;94.10;;;;;;4954091;29;20031;-54
2022/11/22 11:12:26;;;;;;;14.60;8.50;;;12.10;93.20;;;;;;4953784;29;20027;-53
2022/11/22 11:14:56;;;;;;;12.20;7.82;;;11.80;93.70;;;;;;4953897;29;20387;-54
2022/11/22 11:17:34;;;;;;;13.43;7.93;;;12.20;92.10;;;;;;4953317;29;20483;-53
2022/11/22 11:20:01;;;;;;;;;;;12.30;93.30;;;;;;4954147;29;20063;-53
2022/11/22 11:22:32;;;;;;;12.17;7.20;;;12.30;90.90;;;;;;4953588;29;20024;-55
2022/11/22 11:25:29;;;;;;;12.75;7.45;;;11.60;91.10;;;;;;4953932;29;20038;-54
2022/11/22 11:28:01;;;;;;;15.15;7.97;;;10.70;92.70;;;;;;4953647;29;20043;-53
2022/11/22 11:30:27;;;;;;;17.13;8.85;;;10.30;93.60;;;;;;4953239;29;20506;-53
2022/11/22 11:32:54;;;;;;;15.75;8.05;;;9.90;94.50;;;;;;4953359;29;20059;-54
2022/11/22 11:35:27;;;;;;;14.68;7.75;;;9.50;95.80;;;;;;4953483;29;20043;-53
2022/11/22 11:37:54;;;;;;;16.30;8.05;;;9.30;97.10;;;;;;4953290;29;20015;-54
2022/11/22 11:40:25;;;;;;;;;;;9.00;98.00;;;;;;4953669;29;20031;-54
2022/11/22 11:43:14;;;;;;;14.13;8.18;;;9.00;98.00;;;;;;4953088;29;20362;-53
2022/11/22 11:45:39;;;;;;;15.35;8.20;;;8.90;98.70;;;;;;4952790;29;20035;-55
2022/11/22 11:48:27;;;;;;;15.48;8.82;;;8.70;98.80;;;;;;4952323;29;20031;-54
2022/11/22 11:51:14;;;;;;;15.93;8.93;;;8.50;99.50;;;;;;4955057;29;20038;-53
2022/11/22 11:53:48;;;;;;;21.38;9.27;;;8.40;99.90;;;;;;4954198;29;20111;-54
2022/11/22 11:56:27;;;;;;;19.35;9.85;;;8.30;99.90;;;;;;4952730;29;20031;-52
2022/11/22 11:58:55;;;;;;;21.30;10.82;;;8.40;99.90;;;;;;4953180;29;20039;-53
2022/11/22 12:01:23;;;;;;;18.30;10.43;;;8.30;99.90;;;;;;4952867;29;20517;-54
2022/11/22 12:03:56;;;;;;;19.73;10.23;;;8.20;99.90;;;;;;4952651;29;20083;-53
2022/11/22 12:06:28;;;;;;;17.48;9.98;;;8.30;99.90;;;;;;4951452;29;20031;-54
2022/11/22 12:08:59;;;;;;;17.20;10.25;;;8.10;99.90;;;;;;4954237;28;20089;-53
2022/11/22 12:11:47;;;;;;;19.58;10.23;;;8.10;99.90;;;;;;4971363;28;20039;-53
2022/11/22 12:14:15;;;;;;;22.08;11.75;;;8.00;99.90;;;;;;4972019;28;20027;-52
2022/11/22 12:16:49;;;;;;;20.90;11.65;;;8.00;99.90;;;;;;4954251;28;20553;-53
2022/11/22 12:19:35;;;;;;;21.13;11.25;;;7.90;99.90;;;;;;4971809;28;20035;-54
2022/11/22 12:22:26;;;;;;;19.63;10.43;;;7.90;99.90;;;;;;4972216;28;20081;-55
2022/11/22 12:25:13;;;;;;;19.67;11.43;;;7.80;99.90;;;;;;4971182;28;20038;-53
2022/11/22 12:27:39;;;;;;;22.98;12.30;;;7.70;99.90;;;;;;4970813;28;20081;-53
2022/11/22 12:30:10;;;;;;;19.98;11.35;;;7.60;99.90;;;;;;4954058;28;20062;-53
2022/11/22 12:32:44;;;;;;;20.88;11.05;;;7.60;99.90;;;;;;4971067;28;20026;-53
2022/11/22 12:35:17;;;;;;;19.05;11.13;;;7.50;99.90;;;;;;4970269;28;20106;-55
2022/11/22 12:38:02;;;;;;;17.95;11.38;;;7.40;99.90;;;;;;4970475;28;20027;-53
2022/11/22 12:40:37;;;;;;;17.23;10.88;;;7.40;99.90;;;;;;4971244;28;20034;-55
2022/11/22 12:43:10;;;;;;;19.00;10.95;;;7.30;99.90;;;;;;4971143;28;20034;-53
2022/11/22 12:45:48;;;;;;;21.88;11.07;;;7.30;99.90;;;;;;4953432;28;20074;-53
2022/11/22 12:48:24;;;;;;;18.30;10.10;;;7.30;99.90;;;;;;4970984;28;20122;-52
2022/11/22 12:50:57;;;;;;;20.45;11.60;;;7.30;99.90;;;;;;4970941;28;20474;-55
2022/11/22 12:53:29;;;;;;;19.10;11.15;;;7.20;99.90;;;;;;4971092;28;20034;-56
2022/11/22 12:56:10;;;;;;;20.58;11.05;;;7.20;99.90;;;;;;4971400;28;20398;-54
2022/11/22 12:58:50;;;;;;;23.42;11.73;;;7.20;99.90;;;;;;4971106;28;20494;-52